sensor_id;sensor_type;location;lat;lon;timestamp;P1;durP1;ratioP1;P2;durP2;ratioP2
10687;SDS011;5392;42.688;23.298;2023-04-25T00:00:16;5.25;;;2.47;;
10687;SDS011;5392;42.688;23.298;2023-04-25T00:02:43;4.47;;;2.22;;
10687;SDS011;5392;42.688;23.298;2023-04-25T00:05:09;1.65;;;1.30;;
10687;SDS011;5392;42.688;23.298;2023-04-25T00:07:37;2.15;;;1.33;;
10687;SDS011;5392;42.688;23.298;2023-04-25T00:10:04;2.35;;;1.10;;
10687;SDS011;5392;42.688;23.298;2023-04-25T00:12:32;1.65;;;1.42;;
10687;SDS011;5392;42.688;23.298;2023-04-25T00:14:59;1.95;;;1.10;;
10687;SDS011;5392;42.688;23.298;2023-04-25T00:17:26;2.05;;;0.93;;
10687;SDS011;5392;42.688;23.298;2023-04-25T00:19:53;1.33;;;1.00;;
10687;SDS011;5392;42.688;23.298;2023-04-25T00:22:20;1.17;;;1.17;;
10687;SDS011;5392;42.688;23.298;2023-04-25T00:24:47;2.10;;;1.17;;
10687;SDS011;5392;42.688;23.298;2023-04-25T00:27:13;1.33;;;1.25;;
10687;SDS011;5392;42.688;23.298;2023-04-25T00:29:40;1.25;;;1.10;;
10687;SDS011;5392;42.688;23.298;2023-04-25T00:32:07;1.65;;;1.55;;
10687;SDS011;5392;42.688;23.298;2023-04-25T00:34:33;1.92;;;1.83;;
10687;SDS011;5392;42.688;23.298;2023-04-25T00:37:00;2.10;;;2.00;;
10687;SDS011;5392;42.688;23.298;2023-04-25T00:39:28;2.08;;;1.95;;
10687;SDS011;5392;42.688;23.298;2023-04-25T00:41:55;1.85;;;1.75;;
10687;SDS011;5392;42.688;23.298;2023-04-25T00:44:21;2.50;;;2.50;;
10687;SDS011;5392;42.688;23.298;2023-04-25T00:46:49;2.95;;;2.75;;
10687;SDS011;5392;42.688;23.298;2023-04-25T00:49:16;2.13;;;2.13;;
10687;SDS011;5392;42.688;23.298;2023-04-25T00:51:43;2.75;;;2.55;;
10687;SDS011;5392;42.688;23.298;2023-04-25T00:54:11;3.25;;;3.15;;
10687;SDS011;5392;42.688;23.298;2023-04-25T00:56:38;2.72;;;2.53;;
10687;SDS011;5392;42.688;23.298;2023-04-25T00:59:05;3.63;;;3.40;;
10687;SDS011;5392;42.688;23.298;2023-04-25T01:01:32;3.00;;;2.80;;
10687;SDS011;5392;42.688;23.298;2023-04-25T01:03:59;4.00;;;3.80;;
10687;SDS011;5392;42.688;23.298;2023-04-25T01:06:27;4.13;;;3.92;;
10687;SDS011;5392;42.688;23.298;2023-04-25T01:08:54;3.40;;;3.20;;
10687;SDS011;5392;42.688;23.298;2023-04-25T01:11:20;4.47;;;4.28;;
10687;SDS011;5392;42.688;23.298;2023-04-25T01:13:47;4.45;;;4.25;;
10687;SDS011;5392;42.688;23.298;2023-04-25T01:16:14;4.53;;;4.13;;
10687;SDS011;5392;42.688;23.298;2023-04-25T01:18:41;5.15;;;4.85;;
10687;SDS011;5392;42.688;23.298;2023-04-25T01:23:40;5.82;;;5.32;;
10687;SDS011;5392;42.688;23.298;2023-04-25T01:26:10;5.50;;;5.20;;
10687;SDS011;5392;42.688;23.298;2023-04-25T01:28:39;4.10;;;3.78;;
10687;SDS011;5392;42.688;23.298;2023-04-25T01:31:07;4.88;;;4.65;;
10687;SDS011;5392;42.688;23.298;2023-04-25T01:33:35;5.43;;;5.03;;
10687;SDS011;5392;42.688;23.298;2023-04-25T01:36:02;6.55;;;4.72;;
10687;SDS011;5392;42.688;23.298;2023-04-25T01:38:29;5.35;;;5.05;;
10687;SDS011;5392;42.688;23.298;2023-04-25T01:40:56;5.35;;;5.05;;
10687;SDS011;5392;42.688;23.298;2023-04-25T01:43:23;6.55;;;6.05;;
10687;SDS011;5392;42.688;23.298;2023-04-25T01:45:50;5.60;;;5.25;;
10687;SDS011;5392;42.688;23.298;2023-04-25T01:48:18;6.25;;;5.75;;
10687;SDS011;5392;42.688;23.298;2023-04-25T01:50:45;6.93;;;5.43;;
10687;SDS011;5392;42.688;23.298;2023-04-25T01:53:12;5.03;;;4.63;;
10687;SDS011;5392;42.688;23.298;2023-04-25T01:55:40;5.88;;;5.38;;
10687;SDS011;5392;42.688;23.298;2023-04-25T01:58:07;4.95;;;4.63;;
10687;SDS011;5392;42.688;23.298;2023-04-25T02:00:36;4.25;;;3.95;;
10687;SDS011;5392;42.688;23.298;2023-04-25T02:03:07;4.80;;;4.50;;
10687;SDS011;5392;42.688;23.298;2023-04-25T02:05:35;4.88;;;4.50;;
10687;SDS011;5392;42.688;23.298;2023-04-25T02:08:04;4.30;;;4.10;;
10687;SDS011;5392;42.688;23.298;2023-04-25T02:10:32;3.65;;;3.45;;
10687;SDS011;5392;42.688;23.298;2023-04-25T02:13:00;3.80;;;3.58;;
10687;SDS011;5392;42.688;23.298;2023-04-25T02:15:27;3.90;;;3.80;;
10687;SDS011;5392;42.688;23.298;2023-04-25T02:17:54;4.10;;;3.85;;
10687;SDS011;5392;42.688;23.298;2023-04-25T02:20:21;4.22;;;3.92;;
10687;SDS011;5392;42.688;23.298;2023-04-25T02:22:49;4.65;;;4.22;;
10687;SDS011;5392;42.688;23.298;2023-04-25T02:25:17;5.18;;;4.90;;
10687;SDS011;5392;42.688;23.298;2023-04-25T02:27:46;6.05;;;5.50;;
10687;SDS011;5392;42.688;23.298;2023-04-25T02:30:14;6.05;;;5.55;;
10687;SDS011;5392;42.688;23.298;2023-04-25T02:32:40;5.32;;;4.97;;
10687;SDS011;5392;42.688;23.298;2023-04-25T02:35:07;5.65;;;5.25;;
10687;SDS011;5392;42.688;23.298;2023-04-25T02:37:35;5.70;;;5.40;;
10687;SDS011;5392;42.688;23.298;2023-04-25T02:40:03;7.03;;;6.43;;
10687;SDS011;5392;42.688;23.298;2023-04-25T02:42:30;6.53;;;6.03;;
10687;SDS011;5392;42.688;23.298;2023-04-25T02:44:58;6.63;;;5.97;;
10687;SDS011;5392;42.688;23.298;2023-04-25T02:47:24;7.45;;;6.82;;
10687;SDS011;5392;42.688;23.298;2023-04-25T02:49:51;6.43;;;5.85;;
10687;SDS011;5392;42.688;23.298;2023-04-25T02:52:18;7.28;;;6.57;;
10687;SDS011;5392;42.688;23.298;2023-04-25T02:54:45;7.22;;;6.63;;
10687;SDS011;5392;42.688;23.298;2023-04-25T02:57:11;6.68;;;6.18;;
10687;SDS011;5392;42.688;23.298;2023-04-25T02:59:38;6.97;;;6.45;;
10687;SDS011;5392;42.688;23.298;2023-04-25T03:02:05;7.25;;;6.65;;
10687;SDS011;5392;42.688;23.298;2023-04-25T03:04:31;8.25;;;7.53;;
10687;SDS011;5392;42.688;23.298;2023-04-25T03:06:59;9.20;;;7.95;;
10687;SDS011;5392;42.688;23.298;2023-04-25T03:09:27;9.68;;;7.75;;
10687;SDS011;5392;42.688;23.298;2023-04-25T03:11:53;7.82;;;7.10;;
10687;SDS011;5392;42.688;23.298;2023-04-25T03:14:20;8.55;;;7.32;;
10687;SDS011;5392;42.688;23.298;2023-04-25T03:16:47;8.10;;;7.40;;
10687;SDS011;5392;42.688;23.298;2023-04-25T03:19:14;7.88;;;7.07;;
10687;SDS011;5392;42.688;23.298;2023-04-25T03:21:43;6.90;;;6.20;;
10687;SDS011;5392;42.688;23.298;2023-04-25T03:24:10;8.23;;;7.28;;
10687;SDS011;5392;42.688;23.298;2023-04-25T03:26:39;7.82;;;6.93;;
10687;SDS011;5392;42.688;23.298;2023-04-25T03:29:06;7.13;;;6.45;;
10687;SDS011;5392;42.688;23.298;2023-04-25T03:31:33;6.63;;;5.88;;
10687;SDS011;5392;42.688;23.298;2023-04-25T03:33:59;6.50;;;6.00;;
10687;SDS011;5392;42.688;23.298;2023-04-25T03:36:26;6.22;;;5.72;;
10687;SDS011;5392;42.688;23.298;2023-04-25T03:38:53;7.60;;;6.78;;
10687;SDS011;5392;42.688;23.298;2023-04-25T03:41:19;6.95;;;6.45;;
10687;SDS011;5392;42.688;23.298;2023-04-25T03:43:46;6.50;;;5.63;;
10687;SDS011;5392;42.688;23.298;2023-04-25T03:46:13;6.35;;;5.85;;
10687;SDS011;5392;42.688;23.298;2023-04-25T03:48:40;7.00;;;6.43;;
10687;SDS011;5392;42.688;23.298;2023-04-25T03:51:07;7.10;;;6.60;;
10687;SDS011;5392;42.688;23.298;2023-04-25T03:53:34;6.60;;;6.10;;
10687;SDS011;5392;42.688;23.298;2023-04-25T03:56:00;7.95;;;7.22;;
10687;SDS011;5392;42.688;23.298;2023-04-25T03:58:27;4.78;;;4.40;;
10687;SDS011;5392;42.688;23.298;2023-04-25T04:00:54;4.07;;;3.97;;
10687;SDS011;5392;42.688;23.298;2023-04-25T04:03:20;3.22;;;3.13;;
10687;SDS011;5392;42.688;23.298;2023-04-25T04:05:47;2.42;;;2.38;;
10687;SDS011;5392;42.688;23.298;2023-04-25T04:08:14;2.17;;;2.17;;
10687;SDS011;5392;42.688;23.298;2023-04-25T04:10:41;2.13;;;2.03;;
10687;SDS011;5392;42.688;23.298;2023-04-25T04:13:07;1.80;;;1.73;;
10687;SDS011;5392;42.688;23.298;2023-04-25T04:15:34;3.53;;;3.38;;
10687;SDS011;5392;42.688;23.298;2023-04-25T04:18:01;4.60;;;4.40;;
10687;SDS011;5392;42.688;23.298;2023-04-25T04:20:30;3.95;;;3.83;;
10687;SDS011;5392;42.688;23.298;2023-04-25T04:22:57;3.00;;;2.90;;
10687;SDS011;5392;42.688;23.298;2023-04-25T04:25:23;2.10;;;2.10;;
10687;SDS011;5392;42.688;23.298;2023-04-25T04:27:51;1.83;;;1.83;;
10687;SDS011;5392;42.688;23.298;2023-04-25T04:30:21;2.45;;;2.25;;
10687;SDS011;5392;42.688;23.298;2023-04-25T04:32:50;2.92;;;2.83;;
10687;SDS011;5392;42.688;23.298;2023-04-25T04:35:18;4.00;;;3.83;;
10687;SDS011;5392;42.688;23.298;2023-04-25T04:37:44;4.63;;;4.40;;
10687;SDS011;5392;42.688;23.298;2023-04-25T04:40:12;4.68;;;4.38;;
10687;SDS011;5392;42.688;23.298;2023-04-25T04:42:42;5.25;;;4.95;;
10687;SDS011;5392;42.688;23.298;2023-04-25T04:45:09;4.80;;;4.60;;
10687;SDS011;5392;42.688;23.298;2023-04-25T04:47:36;5.47;;;5.28;;
10687;SDS011;5392;42.688;23.298;2023-04-25T04:50:04;5.85;;;5.55;;
10687;SDS011;5392;42.688;23.298;2023-04-25T04:52:30;7.07;;;6.28;;
10687;SDS011;5392;42.688;23.298;2023-04-25T04:54:57;7.63;;;7.03;;
10687;SDS011;5392;42.688;23.298;2023-04-25T04:57:24;7.13;;;6.55;;
10687;SDS011;5392;42.688;23.298;2023-04-25T04:59:50;6.00;;;5.60;;
10687;SDS011;5392;42.688;23.298;2023-04-25T05:02:17;6.88;;;5.45;;
10687;SDS011;5392;42.688;23.298;2023-04-25T05:04:44;5.13;;;4.78;;
10687;SDS011;5392;42.688;23.298;2023-04-25T05:07:11;6.53;;;6.10;;
10687;SDS011;5392;42.688;23.298;2023-04-25T05:09:38;6.55;;;6.05;;
10687;SDS011;5392;42.688;23.298;2023-04-25T05:12:04;6.53;;;6.13;;
10687;SDS011;5392;42.688;23.298;2023-04-25T05:14:31;6.25;;;5.85;;
10687;SDS011;5392;42.688;23.298;2023-04-25T05:16:58;6.80;;;6.20;;
10687;SDS011;5392;42.688;23.298;2023-04-25T05:19:25;12.57;;;11.43;;
10687;SDS011;5392;42.688;23.298;2023-04-25T05:21:52;13.90;;;12.63;;
10687;SDS011;5392;42.688;23.298;2023-04-25T05:24:19;19.52;;;16.60;;
10687;SDS011;5392;42.688;23.298;2023-04-25T05:26:45;15.80;;;14.10;;
10687;SDS011;5392;42.688;23.298;2023-04-25T05:29:12;13.52;;;11.73;;
10687;SDS011;5392;42.688;23.298;2023-04-25T05:31:39;12.02;;;10.77;;
10687;SDS011;5392;42.688;23.298;2023-04-25T05:34:05;8.93;;;8.02;;
10687;SDS011;5392;42.688;23.298;2023-04-25T05:36:32;8.05;;;7.35;;
10687;SDS011;5392;42.688;23.298;2023-04-25T05:38:59;7.75;;;7.07;;
10687;SDS011;5392;42.688;23.298;2023-04-25T05:41:26;7.80;;;7.20;;
10687;SDS011;5392;42.688;23.298;2023-04-25T05:43:52;11.63;;;10.52;;
10687;SDS011;5392;42.688;23.298;2023-04-25T05:46:23;8.73;;;7.95;;
10687;SDS011;5392;42.688;23.298;2023-04-25T05:48:50;75.85;;;38.80;;
10687;SDS011;5392;42.688;23.298;2023-04-25T05:51:16;12.30;;;8.65;;
10687;SDS011;5392;42.688;23.298;2023-04-25T05:53:44;6.78;;;6.18;;
10687;SDS011;5392;42.688;23.298;2023-04-25T05:56:11;6.03;;;5.50;;
10687;SDS011;5392;42.688;23.298;2023-04-25T05:58:38;7.25;;;6.03;;
10687;SDS011;5392;42.688;23.298;2023-04-25T06:01:04;5.28;;;4.82;;
10687;SDS011;5392;42.688;23.298;2023-04-25T06:03:31;6.57;;;5.88;;
10687;SDS011;5392;42.688;23.298;2023-04-25T06:05:58;6.10;;;5.60;;
10687;SDS011;5392;42.688;23.298;2023-04-25T06:08:25;6.80;;;6.15;;
10687;SDS011;5392;42.688;23.298;2023-04-25T06:10:51;7.97;;;6.80;;
10687;SDS011;5392;42.688;23.298;2023-04-25T06:13:18;5.18;;;4.72;;
10687;SDS011;5392;42.688;23.298;2023-04-25T06:15:45;5.93;;;5.63;;
10687;SDS011;5392;42.688;23.298;2023-04-25T06:18:11;8.13;;;6.60;;
10687;SDS011;5392;42.688;23.298;2023-04-25T06:20:38;7.30;;;6.35;;
10687;SDS011;5392;42.688;23.298;2023-04-25T06:23:05;8.07;;;7.38;;
10687;SDS011;5392;42.688;23.298;2023-04-25T06:25:31;9.05;;;8.25;;
10687;SDS011;5392;42.688;23.298;2023-04-25T06:27:58;10.68;;;8.73;;
10687;SDS011;5392;42.688;23.298;2023-04-25T06:30:25;8.98;;;8.27;;
10687;SDS011;5392;42.688;23.298;2023-04-25T06:32:52;8.98;;;8.07;;
10687;SDS011;5392;42.688;23.298;2023-04-25T06:35:20;7.60;;;7.00;;
10687;SDS011;5392;42.688;23.298;2023-04-25T06:37:47;4.80;;;4.50;;
10687;SDS011;5392;42.688;23.298;2023-04-25T06:40:13;10.05;;;6.47;;
10687;SDS011;5392;42.688;23.298;2023-04-25T06:42:41;3.58;;;3.38;;
10687;SDS011;5392;42.688;23.298;2023-04-25T06:45:07;5.97;;;3.42;;
10687;SDS011;5392;42.688;23.298;2023-04-25T06:47:34;5.63;;;3.38;;
10687;SDS011;5392;42.688;23.298;2023-04-25T06:50:01;3.60;;;3.30;;
10687;SDS011;5392;42.688;23.298;2023-04-25T06:52:28;9.15;;;3.70;;
10687;SDS011;5392;42.688;23.298;2023-04-25T06:54:55;4.25;;;3.65;;
10687;SDS011;5392;42.688;23.298;2023-04-25T06:57:21;5.68;;;4.00;;
10687;SDS011;5392;42.688;23.298;2023-04-25T06:59:48;11.05;;;4.13;;
10687;SDS011;5392;42.688;23.298;2023-04-25T07:02:15;4.35;;;3.35;;
10687;SDS011;5392;42.688;23.298;2023-04-25T07:04:42;11.98;;;4.85;;
10687;SDS011;5392;42.688;23.298;2023-04-25T07:07:09;4.63;;;3.75;;
10687;SDS011;5392;42.688;23.298;2023-04-25T07:09:35;3.95;;;3.83;;
10687;SDS011;5392;42.688;23.298;2023-04-25T07:12:02;7.50;;;4.32;;
10687;SDS011;5392;42.688;23.298;2023-04-25T07:14:29;9.68;;;4.82;;
10687;SDS011;5392;42.688;23.298;2023-04-25T07:16:56;6.65;;;4.53;;
10687;SDS011;5392;42.688;23.298;2023-04-25T07:19:23;7.85;;;4.95;;
10687;SDS011;5392;42.688;23.298;2023-04-25T07:21:53;10.48;;;5.28;;
10687;SDS011;5392;42.688;23.298;2023-04-25T07:24:19;9.60;;;5.13;;
10687;SDS011;5392;42.688;23.298;2023-04-25T07:26:46;5.20;;;4.80;;
10687;SDS011;5392;42.688;23.298;2023-04-25T07:29:13;5.25;;;4.88;;
10687;SDS011;5392;42.688;23.298;2023-04-25T07:31:40;7.85;;;5.85;;
10687;SDS011;5392;42.688;23.298;2023-04-25T07:34:07;8.32;;;5.65;;
10687;SDS011;5392;42.688;23.298;2023-04-25T07:36:34;14.32;;;5.97;;
10687;SDS011;5392;42.688;23.298;2023-04-25T07:39:01;14.75;;;5.88;;
10687;SDS011;5392;42.688;23.298;2023-04-25T07:41:27;14.00;;;5.63;;
10687;SDS011;5392;42.688;23.298;2023-04-25T07:43:54;5.88;;;5.25;;
10687;SDS011;5392;42.688;23.298;2023-04-25T07:46:21;5.93;;;5.35;;
10687;SDS011;5392;42.688;23.298;2023-04-25T07:48:47;8.05;;;4.80;;
10687;SDS011;5392;42.688;23.298;2023-04-25T07:51:14;10.30;;;5.05;;
10687;SDS011;5392;42.688;23.298;2023-04-25T07:53:41;5.38;;;4.80;;
10687;SDS011;5392;42.688;23.298;2023-04-25T07:56:08;6.55;;;4.80;;
10687;SDS011;5392;42.688;23.298;2023-04-25T07:58:35;6.65;;;4.72;;
10687;SDS011;5392;42.688;23.298;2023-04-25T08:01:02;4.95;;;4.50;;
10687;SDS011;5392;42.688;23.298;2023-04-25T08:03:28;5.97;;;5.35;;
10687;SDS011;5392;42.688;23.298;2023-04-25T08:05:56;16.90;;;7.00;;
10687;SDS011;5392;42.688;23.298;2023-04-25T08:08:23;5.35;;;3.45;;
10687;SDS011;5392;42.688;23.298;2023-04-25T08:10:49;7.32;;;3.35;;
10687;SDS011;5392;42.688;23.298;2023-04-25T08:13:16;6.35;;;3.50;;
10687;SDS011;5392;42.688;23.298;2023-04-25T08:15:42;3.65;;;3.35;;
10687;SDS011;5392;42.688;23.298;2023-04-25T08:18:09;9.82;;;3.60;;
10687;SDS011;5392;42.688;23.298;2023-04-25T08:20:36;3.60;;;3.08;;
10687;SDS011;5392;42.688;23.298;2023-04-25T08:23:02;6.50;;;3.58;;
10687;SDS011;5392;42.688;23.298;2023-04-25T08:25:29;5.28;;;3.90;;
10687;SDS011;5392;42.688;23.298;2023-04-25T08:27:57;3.03;;;2.85;;
10687;SDS011;5392;42.688;23.298;2023-04-25T08:30:25;8.88;;;3.55;;
10687;SDS011;5392;42.688;23.298;2023-04-25T08:32:53;5.85;;;3.22;;
10687;SDS011;5392;42.688;23.298;2023-04-25T08:35:20;3.80;;;1.20;;
10687;SDS011;5392;42.688;23.298;2023-04-25T08:37:47;7.65;;;3.13;;
10687;SDS011;5392;42.688;23.298;2023-04-25T08:40:15;1.92;;;1.83;;
10687;SDS011;5392;42.688;23.298;2023-04-25T08:42:42;1.55;;;1.17;;
10687;SDS011;5392;42.688;23.298;2023-04-25T08:45:09;1.58;;;1.13;;
10687;SDS011;5392;42.688;23.298;2023-04-25T08:47:37;3.00;;;0.77;;
10687;SDS011;5392;42.688;23.298;2023-04-25T08:50:06;1.10;;;0.50;;
10687;SDS011;5392;42.688;23.298;2023-04-25T08:52:41;0.60;;;0.60;;
10687;SDS011;5392;42.688;23.298;2023-04-25T08:55:11;1.05;;;0.73;;
10687;SDS011;5392;42.688;23.298;2023-04-25T08:57:40;2.42;;;0.40;;
10687;SDS011;5392;42.688;23.298;2023-04-25T09:00:09;2.85;;;0.68;;
10687;SDS011;5392;42.688;23.298;2023-04-25T09:02:41;1.08;;;0.40;;
10687;SDS011;5392;42.688;23.298;2023-04-25T09:05:09;2.95;;;0.70;;
10687;SDS011;5392;42.688;23.298;2023-04-25T09:07:36;3.70;;;0.73;;
10687;SDS011;5392;42.688;23.298;2023-04-25T09:10:03;0.80;;;0.80;;
10687;SDS011;5392;42.688;23.298;2023-04-25T09:12:30;4.22;;;1.02;;
10687;SDS011;5392;42.688;23.298;2023-04-25T09:15:07;0.77;;;0.75;;
10687;SDS011;5392;42.688;23.298;2023-04-25T09:17:36;5.15;;;0.90;;
10687;SDS011;5392;42.688;23.298;2023-04-25T09:20:10;1.08;;;0.90;;
10687;SDS011;5392;42.688;23.298;2023-04-25T09:22:38;1.58;;;1.10;;
10687;SDS011;5392;42.688;23.298;2023-04-25T09:25:08;3.03;;;1.20;;
10687;SDS011;5392;42.688;23.298;2023-04-25T09:27:37;1.45;;;0.90;;
10687;SDS011;5392;42.688;23.298;2023-04-25T09:30:27;10.93;;;1.92;;
10687;SDS011;5392;42.688;23.298;2023-04-25T09:32:56;3.80;;;1.67;;
10687;SDS011;5392;42.688;23.298;2023-04-25T09:35:32;3.42;;;1.38;;
10687;SDS011;5392;42.688;23.298;2023-04-25T09:38:07;17.42;;;3.90;;
10687;SDS011;5392;42.688;23.298;2023-04-25T09:40:44;3.97;;;2.25;;
10687;SDS011;5392;42.688;23.298;2023-04-25T09:43:19;6.22;;;2.67;;
10687;SDS011;5392;42.688;23.298;2023-04-25T09:45:47;2.40;;;0.85;;
10687;SDS011;5392;42.688;23.298;2023-04-25T09:48:21;1.00;;;0.20;;
10687;SDS011;5392;42.688;23.298;2023-04-25T09:51:07;3.92;;;0.20;;
10687;SDS011;5392;42.688;23.298;2023-04-25T09:53:40;0.80;;;0.50;;
10687;SDS011;5392;42.688;23.298;2023-04-25T09:56:18;0.77;;;0.70;;
10687;SDS011;5392;42.688;23.298;2023-04-25T09:58:46;0.40;;;0.40;;
10687;SDS011;5392;42.688;23.298;2023-04-25T10:01:13;0.45;;;0.45;;
10687;SDS011;5392;42.688;23.298;2023-04-25T10:03:42;0.30;;;0.30;;
10687;SDS011;5392;42.688;23.298;2023-04-25T10:06:14;0.40;;;0.40;;
10687;SDS011;5392;42.688;23.298;2023-04-25T10:08:45;0.40;;;0.30;;
10687;SDS011;5392;42.688;23.298;2023-04-25T10:11:17;3.78;;;0.40;;
10687;SDS011;5392;42.688;23.298;2023-04-25T10:13:44;2.85;;;0.30;;
10687;SDS011;5392;42.688;23.298;2023-04-25T10:16:12;7.63;;;0.77;;
10687;SDS011;5392;42.688;23.298;2023-04-25T10:18:39;0.47;;;0.20;;
10687;SDS011;5392;42.688;23.298;2023-04-25T10:21:06;1.48;;;0.20;;
10687;SDS011;5392;42.688;23.298;2023-04-25T10:23:33;7.15;;;0.40;;
10687;SDS011;5392;42.688;23.298;2023-04-25T10:26:00;9.20;;;0.60;;
10687;SDS011;5392;42.688;23.298;2023-04-25T10:28:28;5.13;;;0.52;;
10687;SDS011;5392;42.688;23.298;2023-04-25T10:31:01;2.47;;;0.22;;
10687;SDS011;5392;42.688;23.298;2023-04-25T10:33:36;1.02;;;0.10;;
10687;SDS011;5392;42.688;23.298;2023-04-25T10:36:13;0.85;;;0.10;;
10687;SDS011;5392;42.688;23.298;2023-04-25T10:38:43;1.25;;;0.10;;
10687;SDS011;5392;42.688;23.298;2023-04-25T10:41:12;0.10;;;0.10;;
10687;SDS011;5392;42.688;23.298;2023-04-25T10:43:40;2.75;;;0.20;;
10687;SDS011;5392;42.688;23.298;2023-04-25T10:48:46;1.63;;;0.20;;
10687;SDS011;5392;42.688;23.298;2023-04-25T10:51:33;1.13;;;0.10;;
10687;SDS011;5392;42.688;23.298;2023-04-25T10:54:19;0.20;;;0.20;;
10687;SDS011;5392;42.688;23.298;2023-04-25T10:56:48;0.70;;;0.15;;
10687;SDS011;5392;42.688;23.298;2023-04-25T10:59:17;0.68;;;0.10;;
10687;SDS011;5392;42.688;23.298;2023-04-25T11:01:45;0.68;;;0.20;;
10687;SDS011;5392;42.688;23.298;2023-04-25T11:04:30;1.33;;;0.20;;
10687;SDS011;5392;42.688;23.298;2023-04-25T11:09:49;0.43;;;0.10;;
10687;SDS011;5392;42.688;23.298;2023-04-25T11:12:16;0.10;;;0.10;;
10687;SDS011;5392;42.688;23.298;2023-04-25T11:14:43;2.67;;;0.10;;
10687;SDS011;5392;42.688;23.298;2023-04-25T11:17:10;0.75;;;0.10;;
10687;SDS011;5392;42.688;23.298;2023-04-25T11:19:37;0.45;;;0.00;;
10687;SDS011;5392;42.688;23.298;2023-04-25T11:22:04;0.90;;;0.10;;
10687;SDS011;5392;42.688;23.298;2023-04-25T11:24:32;0.10;;;0.10;;
10687;SDS011;5392;42.688;23.298;2023-04-25T11:27:01;0.20;;;0.05;;
10687;SDS011;5392;42.688;23.298;2023-04-25T11:29:30;0.90;;;0.10;;
10687;SDS011;5392;42.688;23.298;2023-04-25T11:32:00;0.32;;;0.10;;
10687;SDS011;5392;42.688;23.298;2023-04-25T11:34:29;1.10;;;0.10;;
10687;SDS011;5392;42.688;23.298;2023-04-25T11:36:57;1.55;;;0.20;;
10687;SDS011;5392;42.688;23.298;2023-04-25T11:39:24;0.10;;;0.10;;
10687;SDS011;5392;42.688;23.298;2023-04-25T11:41:52;1.00;;;0.20;;
10687;SDS011;5392;42.688;23.298;2023-04-25T11:44:20;1.08;;;0.10;;
10687;SDS011;5392;42.688;23.298;2023-04-25T11:46:47;0.73;;;0.10;;
10687;SDS011;5392;42.688;23.298;2023-04-25T11:49:14;2.25;;;0.20;;
10687;SDS011;5392;42.688;23.298;2023-04-25T11:51:41;1.40;;;0.30;;
10687;SDS011;5392;42.688;23.298;2023-04-25T11:54:12;3.28;;;0.40;;
10687;SDS011;5392;42.688;23.298;2023-04-25T11:56:40;3.65;;;0.30;;
10687;SDS011;5392;42.688;23.298;2023-04-25T11:59:08;4.15;;;0.30;;
10687;SDS011;5392;42.688;23.298;2023-04-25T12:01:36;2.97;;;0.40;;
10687;SDS011;5392;42.688;23.298;2023-04-25T12:04:20;0.20;;;0.20;;
10687;SDS011;5392;42.688;23.298;2023-04-25T12:06:50;0.10;;;0.10;;
10687;SDS011;5392;42.688;23.298;2023-04-25T12:09:20;3.05;;;0.20;;
10687;SDS011;5392;42.688;23.298;2023-04-25T12:11:54;0.10;;;0.00;;
10687;SDS011;5392;42.688;23.298;2023-04-25T12:16:57;1.63;;;0.10;;
10687;SDS011;5392;42.688;23.298;2023-04-25T12:19:26;1.50;;;0.30;;
10687;SDS011;5392;42.688;23.298;2023-04-25T12:21:57;0.20;;;0.15;;
10687;SDS011;5392;42.688;23.298;2023-04-25T12:24:25;0.80;;;0.20;;
10687;SDS011;5392;42.688;23.298;2023-04-25T12:29:25;0.10;;;0.10;;
10687;SDS011;5392;42.688;23.298;2023-04-25T12:32:03;1.00;;;0.10;;
10687;SDS011;5392;42.688;23.298;2023-04-25T12:34:31;4.18;;;0.20;;
10687;SDS011;5392;42.688;23.298;2023-04-25T12:36:58;0.93;;;0.10;;
10687;SDS011;5392;42.688;23.298;2023-04-25T12:39:25;3.70;;;0.30;;
10687;SDS011;5392;42.688;23.298;2023-04-25T12:41:52;5.82;;;0.15;;
10687;SDS011;5392;42.688;23.298;2023-04-25T12:44:20;0.20;;;0.20;;
10687;SDS011;5392;42.688;23.298;2023-04-25T12:46:48;0.57;;;0.20;;
10687;SDS011;5392;42.688;23.298;2023-04-25T12:49:15;1.30;;;0.20;;
10687;SDS011;5392;42.688;23.298;2023-04-25T12:52:01;0.95;;;0.25;;
10687;SDS011;5392;42.688;23.298;2023-04-25T12:54:28;0.65;;;0.45;;
10687;SDS011;5392;42.688;23.298;2023-04-25T12:56:54;0.57;;;0.45;;
10687;SDS011;5392;42.688;23.298;2023-04-25T12:59:21;1.70;;;0.30;;
10687;SDS011;5392;42.688;23.298;2023-04-25T13:01:48;3.22;;;0.30;;
10687;SDS011;5392;42.688;23.298;2023-04-25T13:04:15;0.30;;;0.30;;
10687;SDS011;5392;42.688;23.298;2023-04-25T13:06:42;4.18;;;0.60;;
10687;SDS011;5392;42.688;23.298;2023-04-25T13:09:09;5.20;;;0.90;;
10687;SDS011;5392;42.688;23.298;2023-04-25T13:11:37;3.33;;;1.17;;
10687;SDS011;5392;42.688;23.298;2023-04-25T13:14:04;5.50;;;1.00;;
10687;SDS011;5392;42.688;23.298;2023-04-25T13:16:31;3.03;;;0.63;;
10687;SDS011;5392;42.688;23.298;2023-04-25T13:18:58;3.05;;;0.77;;
10687;SDS011;5392;42.688;23.298;2023-04-25T13:21:25;7.05;;;1.23;;
10687;SDS011;5392;42.688;23.298;2023-04-25T13:23:52;2.70;;;0.77;;
10687;SDS011;5392;42.688;23.298;2023-04-25T13:26:19;4.20;;;1.40;;
10687;SDS011;5392;42.688;23.298;2023-04-25T13:28:46;7.72;;;1.30;;
10687;SDS011;5392;42.688;23.298;2023-04-25T13:31:15;7.13;;;1.00;;
10687;SDS011;5392;42.688;23.298;2023-04-25T13:33:42;2.42;;;0.63;;
10687;SDS011;5392;42.688;23.298;2023-04-25T13:36:09;3.33;;;0.88;;
10687;SDS011;5392;42.688;23.298;2023-04-25T13:38:37;1.95;;;0.70;;
10687;SDS011;5392;42.688;23.298;2023-04-25T13:41:05;4.50;;;1.25;;
10687;SDS011;5392;42.688;23.298;2023-04-25T13:43:33;1.83;;;0.88;;
10687;SDS011;5392;42.688;23.298;2023-04-25T13:46:00;4.43;;;0.77;;
10687;SDS011;5392;42.688;23.298;2023-04-25T13:48:27;5.07;;;0.90;;
10687;SDS011;5392;42.688;23.298;2023-04-25T13:50:53;3.15;;;0.70;;
10687;SDS011;5392;42.688;23.298;2023-04-25T13:53:20;29.52;;;25.27;;
10687;SDS011;5392;42.688;23.298;2023-04-25T13:55:47;6.68;;;5.28;;
10687;SDS011;5392;42.688;23.298;2023-04-25T13:58:14;3.63;;;1.80;;
10687;SDS011;5392;42.688;23.298;2023-04-25T14:00:40;10.32;;;1.85;;
10687;SDS011;5392;42.688;23.298;2023-04-25T14:03:09;2.63;;;0.90;;
10687;SDS011;5392;42.688;23.298;2023-04-25T14:05:36;3.42;;;0.80;;
10687;SDS011;5392;42.688;23.298;2023-04-25T14:08:07;5.55;;;0.88;;
10687;SDS011;5392;42.688;23.298;2023-04-25T14:10:35;2.58;;;0.50;;
10687;SDS011;5392;42.688;23.298;2023-04-25T14:13:03;0.60;;;0.60;;
10687;SDS011;5392;42.688;23.298;2023-04-25T14:15:31;5.05;;;0.70;;
10687;SDS011;5392;42.688;23.298;2023-04-25T14:17:59;4.70;;;0.43;;
10687;SDS011;5392;42.688;23.298;2023-04-25T14:20:26;5.18;;;0.60;;
10687;SDS011;5392;42.688;23.298;2023-04-25T14:22:53;0.90;;;0.30;;
10687;SDS011;5392;42.688;23.298;2023-04-25T14:25:22;2.40;;;0.40;;
10687;SDS011;5392;42.688;23.298;2023-04-25T14:27:50;2.50;;;0.40;;
10687;SDS011;5392;42.688;23.298;2023-04-25T14:30:20;2.22;;;0.40;;
10687;SDS011;5392;42.688;23.298;2023-04-25T14:32:48;1.50;;;0.40;;
10687;SDS011;5392;42.688;23.298;2023-04-25T14:35:16;0.85;;;0.40;;
10687;SDS011;5392;42.688;23.298;2023-04-25T14:37:43;0.75;;;0.30;;
10687;SDS011;5392;42.688;23.298;2023-04-25T14:40:10;0.20;;;0.20;;
10687;SDS011;5392;42.688;23.298;2023-04-25T14:42:39;0.82;;;0.20;;
10687;SDS011;5392;42.688;23.298;2023-04-25T14:45:06;0.95;;;0.30;;
10687;SDS011;5392;42.688;23.298;2023-04-25T14:47:37;0.88;;;0.20;;
10687;SDS011;5392;42.688;23.298;2023-04-25T14:50:05;1.75;;;0.40;;
10687;SDS011;5392;42.688;23.298;2023-04-25T14:52:32;1.60;;;0.30;;
10687;SDS011;5392;42.688;23.298;2023-04-25T14:54:59;0.47;;;0.30;;
10687;SDS011;5392;42.688;23.298;2023-04-25T14:57:28;0.40;;;0.40;;
10687;SDS011;5392;42.688;23.298;2023-04-25T14:59:54;1.05;;;0.50;;
10687;SDS011;5392;42.688;23.298;2023-04-25T15:02:21;1.30;;;0.60;;